createdAt,value
2024-02-13T00:00:57.683Z,1007.59
2024-02-13T00:02:03.776Z,1007.61
2024-02-13T00:03:09.932Z,1007.64
2024-02-13T00:04:15.875Z,1007.65
2024-02-13T00:05:22.306Z,1007.69
2024-02-13T00:06:28.152Z,1007.65
2024-02-13T00:07:34.293Z,1007.62
2024-02-13T00:08:45.422Z,1007.68
2024-02-13T00:09:46.423Z,1007.73
2024-02-13T00:10:52.518Z,1007.69
2024-02-13T00:11:58.692Z,1007.74
2024-02-13T00:13:10.868Z,1007.75
2024-02-13T00:14:17.019Z,1007.74
2024-02-13T00:15:23.062Z,1007.73
2024-02-13T00:16:29.141Z,1007.75
2024-02-13T00:17:35.348Z,1007.82
2024-02-13T00:18:41.386Z,1007.84
2024-02-13T00:19:47.490Z,1007.86
2024-02-13T00:20:53.562Z,1007.83
2024-02-13T00:21:59.647Z,1007.83
2024-02-13T00:23:05.870Z,1007.86
2024-02-13T00:24:11.740Z,1007.88
2024-02-13T00:25:17.913Z,1007.9
2024-02-13T00:26:24.034Z,1007.91
2024-02-13T00:27:30.149Z,1007.91
2024-02-13T00:28:36.224Z,1007.9
2024-02-13T00:29:42.361Z,1007.93
2024-02-13T00:30:48.391Z,1007.94
2024-02-13T00:31:54.489Z,1007.92
2024-02-13T00:33:00.786Z,1007.96
2024-02-13T00:34:06.677Z,1007.99
2024-02-13T00:35:12.827Z,1007.96
2024-02-13T00:36:18.845Z,1008.04
2024-02-13T00:37:24.948Z,1008.05
2024-02-13T00:38:31.092Z,1007.99
2024-02-13T00:39:37.124Z,1008
2024-02-13T00:40:43.244Z,1008.03
2024-02-13T00:41:49.410Z,1007.98
2024-02-13T00:42:55.400Z,1008.02
2024-02-13T00:44:01.500Z,1008.05
2024-02-13T00:45:07.527Z,1008.06
2024-02-13T00:46:13.704Z,1008.07
2024-02-13T00:47:20.097Z,1008.1
2024-02-13T00:48:25.949Z,1008.17
2024-02-13T00:49:32.050Z,1008.16
2024-02-13T00:50:38.120Z,1008.17
2024-02-13T00:51:44.200Z,1008.17
2024-02-13T00:52:50.281Z,1008.18
2024-02-13T00:53:56.369Z,1008.18
2024-02-13T00:55:02.472Z,1008.21
2024-02-13T00:56:08.570Z,1008.21
2024-02-13T00:57:14.635Z,1008.27
2024-02-13T00:58:20.742Z,1008.27
2024-02-13T00:59:26.944Z,1008.31
2024-02-13T01:00:32.973Z,1008.29
2024-02-13T01:01:39.209Z,1008.26
2024-02-13T01:02:45.177Z,1008.25
2024-02-13T01:03:51.151Z,1008.3
2024-02-13T01:04:57.310Z,1008.29
2024-02-13T01:06:03.527Z,1008.33
2024-02-13T01:07:09.527Z,1008.32
2024-02-13T01:08:15.591Z,1008.29
2024-02-13T01:09:21.696Z,1008.35
2024-02-13T01:10:27.812Z,1008.35
2024-02-13T01:11:33.965Z,1008.37
2024-02-13T01:12:39.980Z,1008.38
2024-02-13T01:13:46.069Z,1008.41
2024-02-13T01:14:52.246Z,1008.42
2024-02-13T01:15:58.263Z,1008.44
2024-02-13T01:17:04.352Z,1008.42
2024-02-13T01:18:10.523Z,1008.42
2024-02-13T01:19:16.549Z,1008.44
2024-02-13T01:20:22.867Z,1008.46
2024-02-13T01:21:28.743Z,1008.47
2024-02-13T01:22:34.835Z,1008.53
2024-02-13T01:23:40.998Z,1008.54
2024-02-13T01:24:47.041Z,1008.57
2024-02-13T01:25:53.137Z,1008.6
2024-02-13T01:26:59.492Z,1008.57
2024-02-13T01:28:05.308Z,1008.58
2024-02-13T01:29:11.428Z,1008.62
2024-02-13T01:30:18.495Z,1008.62
2024-02-13T01:31:23.591Z,1008.67
2024-02-13T01:32:29.758Z,1008.68
2024-02-13T01:33:35.917Z,1008.69
2024-02-13T01:34:41.907Z,1008.74
2024-02-13T01:35:48.046Z,1008.7
2024-02-13T01:36:54.119Z,1008.75
2024-02-13T01:38:00.167Z,1008.76
2024-02-13T01:39:06.274Z,1008.76
2024-02-13T01:40:12.405Z,1008.8
2024-02-13T01:41:18.486Z,1008.78
2024-02-13T01:42:24.541Z,1008.8
2024-02-13T01:43:30.670Z,1008.8
2024-02-13T01:44:36.836Z,1008.84
2024-02-13T01:45:42.756Z,1008.82
2024-02-13T01:46:48.916Z,1008.82
2024-02-13T01:47:55.134Z,1008.83
2024-02-13T01:49:01.420Z,1008.85
2024-02-13T01:50:07.324Z,1008.85
2024-02-13T01:51:13.217Z,1008.9
2024-02-13T01:52:19.391Z,1008.87
2024-02-13T01:53:25.561Z,1008.87
2024-02-13T01:54:31.562Z,1008.9
2024-02-13T01:55:37.690Z,1008.89
2024-02-13T01:56:43.781Z,1008.92
2024-02-13T01:57:49.866Z,1008.92
2024-02-13T01:58:55.987Z,1008.88
2024-02-13T02:00:02.012Z,1008.92
2024-02-13T02:01:08.179Z,1008.91
2024-02-13T02:02:14.334Z,1008.92
2024-02-13T02:03:20.336Z,1008.92
2024-02-13T02:04:26.553Z,1008.97
2024-02-13T02:05:32.571Z,1008.94
2024-02-13T02:06:38.700Z,1008.93
2024-02-13T02:07:44.737Z,1008.95
2024-02-13T02:08:50.863Z,1008.98
2024-02-13T02:09:56.951Z,1008.99
2024-02-13T02:11:02.960Z,1008.99
2024-02-13T02:12:09.153Z,1009.05
2024-02-13T02:13:15.202Z,1009
2024-02-13T02:14:21.298Z,1009.03
2024-02-13T02:15:27.396Z,1009.05
2024-02-13T02:16:33.486Z,1009.1
2024-02-13T02:17:39.679Z,1009.1
2024-02-13T02:18:45.815Z,1009.12
2024-02-13T02:19:51.766Z,1009.16
2024-02-13T02:20:57.795Z,1009.23
2024-02-13T02:22:03.979Z,1009.21
2024-02-13T02:23:10.101Z,1009.22
2024-02-13T02:24:16.194Z,1009.2
2024-02-13T02:25:22.184Z,1009.27
2024-02-13T02:26:28.445Z,1009.26
2024-02-13T02:27:34.438Z,1009.32
2024-02-13T02:28:40.538Z,1009.32
2024-02-13T02:29:46.696Z,1009.32
2024-02-13T02:30:52.633Z,1009.33
2024-02-13T02:31:58.824Z,1009.35
2024-02-13T02:33:05.052Z,1009.37
2024-02-13T02:34:11.046Z,1009.39
2024-02-13T02:35:17.240Z,1009.4
2024-02-13T02:36:23.207Z,1009.43
2024-02-13T02:37:29.292Z,1009.44
2024-02-13T02:38:35.440Z,1009.45
2024-02-13T02:39:41.466Z,1009.48
2024-02-13T02:40:47.592Z,1009.49
2024-02-13T02:41:53.740Z,1009.46
2024-02-13T02:42:59.794Z,1009.5
2024-02-13T02:44:05.835Z,1009.51
2024-02-13T02:45:11.984Z,1009.52
2024-02-13T02:46:18.027Z,1009.55
2024-02-13T02:47:24.253Z,1009.6
2024-02-13T02:48:30.437Z,1009.55
2024-02-13T02:49:36.408Z,1009.53
2024-02-13T02:50:42.526Z,1009.58
2024-02-13T02:51:48.515Z,1009.63
2024-02-13T02:52:54.650Z,1009.62
2024-02-13T02:54:00.834Z,1009.66
2024-02-13T02:55:06.828Z,1009.67
2024-02-13T02:56:12.909Z,1009.71
2024-02-13T02:57:19.003Z,1009.7
2024-02-13T02:58:25.086Z,1009.71
2024-02-13T02:59:31.237Z,1009.73
2024-02-13T03:00:37.284Z,1009.71
2024-02-13T03:01:43.377Z,1009.73
2024-02-13T03:02:49.667Z,1009.77
2024-02-13T03:03:55.718Z,1009.81
2024-02-13T03:05:01.642Z,1009.8
2024-02-13T03:06:07.932Z,1009.81
2024-02-13T03:07:13.756Z,1009.87
2024-02-13T03:08:20.014Z,1009.83
2024-02-13T03:09:26.073Z,1009.88
2024-02-13T03:10:32.164Z,1009.88
2024-02-13T03:11:38.290Z,1009.91
2024-02-13T03:12:44.301Z,1009.94
2024-02-13T03:13:50.399Z,1009.97
2024-02-13T03:14:56.581Z,1009.97
2024-02-13T03:16:02.616Z,1010.03
2024-02-13T03:17:08.656Z,1010.03
2024-02-13T03:18:14.904Z,1010.02
2024-02-13T03:19:20.906Z,1010.05
2024-02-13T03:20:27.020Z,1010.1
2024-02-13T03:21:33.010Z,1010.11
2024-02-13T03:22:39.194Z,1010.12
2024-02-13T03:23:45.378Z,1010.16
2024-02-13T03:24:51.355Z,1010.15
2024-02-13T03:25:57.481Z,1010.14
2024-02-13T03:27:03.573Z,1010.13
2024-02-13T03:28:09.651Z,1010.17
2024-02-13T03:29:15.820Z,1010.18
2024-02-13T03:30:21.879Z,1010.19
2024-02-13T03:31:27.950Z,1010.19
2024-02-13T03:32:34.219Z,1010.22
2024-02-13T03:33:40.369Z,1010.25
2024-02-13T03:34:46.262Z,1010.29
2024-02-13T03:35:52.389Z,1010.26
2024-02-13T03:36:58.447Z,1010.34
2024-02-13T03:38:04.424Z,1010.4
2024-02-13T03:39:10.606Z,1010.39
2024-02-13T03:40:16.691Z,1010.42
2024-02-13T03:41:22.845Z,1010.41
2024-02-13T03:42:28.881Z,1010.42
2024-02-13T03:43:34.999Z,1010.42
2024-02-13T03:44:41.130Z,1010.47
2024-02-13T03:45:47.198Z,1010.43
2024-02-13T03:46:53.265Z,1010.47
2024-02-13T03:47:59.521Z,1010.51
2024-02-13T03:49:05.516Z,1010.51
2024-02-13T03:50:11.648Z,1010.51
2024-02-13T03:51:17.634Z,1010.54
2024-02-13T03:52:23.654Z,1010.54
2024-02-13T03:53:36.015Z,1010.59
2024-02-13T03:54:42.113Z,1010.58
2024-02-13T03:55:48.174Z,1010.58
2024-02-13T03:56:54.277Z,1010.68
2024-02-13T03:58:00.356Z,1010.68
2024-02-13T03:59:06.498Z,1010.69
2024-02-13T04:00:12.568Z,1010.73
2024-02-13T04:01:18.638Z,1010.74
2024-02-13T04:02:24.693Z,1010.79
2024-02-13T04:03:30.848Z,1010.8
2024-02-13T04:04:36.912Z,1010.8
2024-02-13T04:05:43.073Z,1010.74
2024-02-13T04:06:49.090Z,1010.82
2024-02-13T04:07:55.190Z,1010.83
2024-02-13T04:09:01.350Z,1010.81
2024-02-13T04:10:07.412Z,1010.84
2024-02-13T04:11:13.550Z,1010.86
2024-02-13T04:12:19.539Z,1010.86
2024-02-13T04:13:25.718Z,1010.9
2024-02-13T04:14:31.824Z,1010.91
2024-02-13T04:15:37.886Z,1010.92
2024-02-13T04:16:44.088Z,1010.88
2024-02-13T04:17:50.166Z,1010.91
2024-02-13T04:18:56.291Z,1010.92
2024-02-13T04:20:02.280Z,1010.99
2024-02-13T04:21:08.400Z,1010.96
2024-02-13T04:22:14.468Z,1010.99
2024-02-13T04:23:20.558Z,1011.01
2024-02-13T04:24:26.700Z,1011.02
2024-02-13T04:25:32.750Z,1011.04
2024-02-13T04:26:38.867Z,1011.05
2024-02-13T04:27:44.937Z,1011.01
2024-02-13T04:28:51.055Z,1011.07
2024-02-13T04:29:57.177Z,1011.03
2024-02-13T04:31:03.242Z,1011.09
2024-02-13T04:32:09.320Z,1011.11
2024-02-13T04:33:15.559Z,1011.09
2024-02-13T04:34:21.648Z,1011.13
2024-02-13T04:35:27.618Z,1011.12
2024-02-13T04:36:33.995Z,1011.16
2024-02-13T04:37:39.707Z,1011.15
2024-02-13T04:38:45.931Z,1011.18
2024-02-13T04:39:51.978Z,1011.18
2024-02-13T04:40:58.112Z,1011.21
2024-02-13T04:42:04.215Z,1011.23
2024-02-13T04:43:10.299Z,1011.24
2024-02-13T04:44:16.395Z,1011.2
2024-02-13T04:45:22.483Z,1011.22
2024-02-13T04:46:28.603Z,1011.22
2024-02-13T04:47:34.925Z,1011.28
2024-02-13T04:48:40.949Z,1011.26
2024-02-13T04:49:46.845Z,1011.28
2024-02-13T04:50:52.983Z,1011.3
2024-02-13T04:51:59.058Z,1011.26
2024-02-13T04:53:05.073Z,1011.28
2024-02-13T04:54:11.270Z,1011.29
2024-02-13T04:55:17.317Z,1011.28
2024-02-13T04:56:23.449Z,1011.3
2024-02-13T04:57:29.434Z,1011.27
2024-02-13T04:58:35.643Z,1011.3
2024-02-13T04:59:41.718Z,1011.35
2024-02-13T05:00:47.804Z,1011.36
2024-02-13T05:01:53.897Z,1011.33
2024-02-13T05:02:59.914Z,1011.35
2024-02-13T05:04:06.141Z,1011.32
2024-02-13T05:05:12.217Z,1011.39
2024-02-13T05:06:18.362Z,1011.32
2024-02-13T05:07:24.403Z,1011.38
2024-02-13T05:08:30.472Z,1011.34
2024-02-13T05:09:36.558Z,1011.34
2024-02-13T05:10:42.637Z,1011.36
2024-02-13T05:11:48.759Z,1011.39
2024-02-13T05:12:54.757Z,1011.38
2024-02-13T05:14:01.151Z,1011.38
2024-02-13T05:15:07.031Z,1011.42
2024-02-13T05:16:13.156Z,1011.46
2024-02-13T05:17:19.284Z,1011.48
2024-02-13T05:18:25.361Z,1011.47
2024-02-13T05:19:31.436Z,1011.47
2024-02-13T05:20:37.504Z,1011.5
2024-02-13T05:21:43.609Z,1011.5
2024-02-13T05:22:49.686Z,1011.49
2024-02-13T05:23:55.820Z,1011.52
2024-02-13T05:25:01.861Z,1011.57
2024-02-13T05:26:07.961Z,1011.54
2024-02-13T05:27:14.069Z,1011.59
2024-02-13T05:28:20.141Z,1011.57
2024-02-13T05:29:26.283Z,1011.56
2024-02-13T05:30:32.342Z,1011.57
2024-02-13T05:31:38.459Z,1011.6
2024-02-13T05:32:44.591Z,1011.6
2024-02-13T05:33:50.725Z,1011.63
2024-02-13T05:34:56.722Z,1011.63
2024-02-13T05:36:02.818Z,1011.62
2024-02-13T05:37:08.917Z,1011.58
2024-02-13T05:38:15.015Z,1011.6
2024-02-13T05:39:21.126Z,1011.62
2024-02-13T05:40:27.212Z,1011.66
2024-02-13T05:41:33.402Z,1011.67
2024-02-13T05:42:39.422Z,1011.69
2024-02-13T05:43:45.506Z,1011.71
2024-02-13T05:44:51.594Z,1011.77
2024-02-13T05:45:57.689Z,1011.81
2024-02-13T05:47:03.814Z,1011.85
2024-02-13T05:48:09.894Z,1011.84
2024-02-13T05:49:16.002Z,1011.87
2024-02-13T05:50:22.119Z,1011.82
2024-02-13T05:51:28.200Z,1011.81
2024-02-13T05:52:34.242Z,1011.85
2024-02-13T05:53:40.352Z,1011.81
2024-02-13T05:54:46.553Z,1011.81
2024-02-13T05:55:52.561Z,1011.82
2024-02-13T05:56:58.737Z,1011.81
2024-02-13T05:58:04.728Z,1011.85
2024-02-13T05:59:10.826Z,1011.82
2024-02-13T06:00:17.020Z,1011.85
2024-02-13T06:01:23.105Z,1011.86
2024-02-13T06:02:29.462Z,1011.88
2024-02-13T06:03:35.179Z,1011.94
2024-02-13T06:04:41.300Z,1011.93
2024-02-13T06:05:51.165Z,1011.91
2024-02-13T06:06:53.522Z,1011.91
2024-02-13T06:07:59.581Z,1011.93
2024-02-13T06:09:05.686Z,1011.96
2024-02-13T06:10:11.745Z,1011.97
2024-02-13T06:11:17.978Z,1011.99
2024-02-13T06:12:23.959Z,1011.98
2024-02-13T06:13:30.049Z,1012.03
2024-02-13T06:14:36.174Z,1012.01
2024-02-13T06:15:42.239Z,1012.04
2024-02-13T06:16:48.411Z,1012.05
2024-02-13T06:17:54.527Z,1012.1
2024-02-13T06:19:00.624Z,1012.08
2024-02-13T06:20:06.636Z,1012.13
2024-02-13T06:21:12.731Z,1012.14
2024-02-13T06:22:18.820Z,1012.17
2024-02-13T06:23:24.936Z,1012.2
2024-02-13T06:24:30.990Z,1012.21
2024-02-13T06:25:37.100Z,1012.24
2024-02-13T06:26:43.236Z,1012.27
2024-02-13T06:27:49.344Z,1012.27
2024-02-13T06:28:55.374Z,1012.28
2024-02-13T06:30:01.492Z,1012.3
2024-02-13T06:31:07.571Z,1012.32
2024-02-13T06:32:13.768Z,1012.34
2024-02-13T06:33:19.948Z,1012.38
2024-02-13T06:34:25.915Z,1012.33
2024-02-13T06:35:32.009Z,1012.37
2024-02-13T06:36:38.071Z,1012.41
2024-02-13T06:37:44.129Z,1012.39
2024-02-13T06:38:50.278Z,1012.4
2024-02-13T06:39:56.328Z,1012.42
2024-02-13T06:41:02.427Z,1012.38
2024-02-13T06:42:08.586Z,1012.41
2024-02-13T06:43:14.641Z,1012.43
2024-02-13T06:44:20.636Z,1012.43
2024-02-13T06:45:26.794Z,1012.43
2024-02-13T06:46:32.889Z,1012.44
2024-02-13T06:47:39.548Z,1012.46
2024-02-13T06:48:45.183Z,1012.48
2024-02-13T06:49:51.275Z,1012.48
2024-02-13T06:50:57.489Z,1012.49
2024-02-13T06:52:03.364Z,1012.52
2024-02-13T06:53:09.512Z,1012.46
2024-02-13T06:54:15.653Z,1012.52
2024-02-13T06:55:21.589Z,1012.56
2024-02-13T06:56:27.782Z,1012.55
2024-02-13T06:57:33.905Z,1012.57
2024-02-13T06:58:39.993Z,1012.63
2024-02-13T06:59:46.008Z,1012.57
2024-02-13T07:00:52.130Z,1012.62
2024-02-13T07:01:58.239Z,1012.6
2024-02-13T07:03:04.386Z,1012.57
2024-02-13T07:04:10.486Z,1012.62
2024-02-13T07:05:16.604Z,1012.6
2024-02-13T07:06:33.164Z,1012.63
2024-02-13T07:07:37.345Z,1012.69
2024-02-13T07:08:35.035Z,1012.71
2024-02-13T07:09:41.051Z,1012.75
2024-02-13T07:10:46.903Z,1012.81
2024-02-13T07:11:53.110Z,1012.86
2024-02-13T07:12:59.164Z,1012.91
2024-02-13T07:14:05.314Z,1012.93
2024-02-13T07:15:11.392Z,1012.88
2024-02-13T07:16:17.475Z,1012.89
2024-02-13T07:17:23.678Z,1012.92
2024-02-13T07:18:29.730Z,1012.94
2024-02-13T07:19:35.835Z,1012.88
2024-02-13T07:20:41.793Z,1012.88
2024-02-13T07:21:47.993Z,1012.93
2024-02-13T07:22:54.035Z,1012.99
2024-02-13T07:24:00.202Z,1012.96
2024-02-13T07:25:06.222Z,1012.99
2024-02-13T07:26:12.319Z,1012.96
2024-02-13T07:27:18.401Z,1012.99
2024-02-13T07:28:24.763Z,1012.98
2024-02-13T07:29:30.685Z,1013.03
2024-02-13T07:30:36.720Z,1013.05
2024-02-13T07:31:42.784Z,1012.99
2024-02-13T07:32:48.994Z,1013.05
2024-02-13T07:34:01.394Z,1013.09
2024-02-13T07:35:07.329Z,1013.08
2024-02-13T07:36:13.387Z,1013.13
2024-02-13T07:37:19.383Z,1013.18
2024-02-13T07:38:25.555Z,1013.16
2024-02-13T07:39:31.689Z,1013.16
2024-02-13T07:40:37.678Z,1013.2
2024-02-13T07:41:43.800Z,1013.2
2024-02-13T07:42:49.883Z,1013.21
2024-02-13T07:43:56.000Z,1013.22
2024-02-13T07:45:02.390Z,1013.22
2024-02-13T07:46:08.169Z,1013.21
2024-02-13T07:47:14.311Z,1013.19
2024-02-13T07:48:20.647Z,1013.18
2024-02-13T07:49:26.430Z,1013.22
2024-02-13T07:50:32.571Z,1013.19
2024-02-13T07:51:38.627Z,1013.21
2024-02-13T07:52:44.727Z,1013.19
2024-02-13T07:53:50.894Z,1013.15
2024-02-13T07:54:56.923Z,1013.22
2024-02-13T07:56:03.046Z,1013.2
2024-02-13T07:57:09.119Z,1013.22
2024-02-13T07:58:15.204Z,1013.24
2024-02-13T07:59:21.322Z,1013.3
2024-02-13T08:00:27.551Z,1013.28
2024-02-13T08:01:33.469Z,1013.3
2024-02-13T08:02:39.647Z,1013.31
2024-02-13T08:03:45.724Z,1013.32
2024-02-13T08:04:51.797Z,1013.3
2024-02-13T08:05:58.007Z,1013.32
2024-02-13T08:07:03.969Z,1013.36
2024-02-13T08:08:10.326Z,1013.31
2024-02-13T08:09:16.172Z,1013.35
2024-02-13T08:10:22.269Z,1013.35
2024-02-13T08:11:28.366Z,1013.4
2024-02-13T08:12:34.441Z,1013.37
2024-02-13T08:13:40.595Z,1013.38
2024-02-13T08:14:46.680Z,1013.41
2024-02-13T08:15:52.775Z,1013.46
2024-02-13T08:16:58.865Z,1013.47
2024-02-13T08:18:05.011Z,1013.52
2024-02-13T08:19:11.095Z,1013.5
2024-02-13T08:20:17.208Z,1013.44
2024-02-13T08:21:23.363Z,1013.4
2024-02-13T08:22:29.322Z,1013.47
2024-02-13T08:23:35.435Z,1013.48
2024-02-13T08:24:41.542Z,1013.46
2024-02-13T08:25:47.511Z,1013.48
2024-02-13T08:26:53.781Z,1013.46
2024-02-13T08:27:59.778Z,1013.44
2024-02-13T08:29:05.885Z,1013.43
2024-02-13T08:30:12.073Z,1013.44
2024-02-13T08:31:18.092Z,1013.42
2024-02-13T08:32:24.288Z,1013.45
2024-02-13T08:33:30.372Z,1013.49
2024-02-13T08:34:36.480Z,1013.5
2024-02-13T08:35:42.517Z,1013.52
2024-02-13T08:36:48.773Z,1013.57
2024-02-13T08:37:58.039Z,1013.56
2024-02-13T08:39:00.734Z,1013.55
2024-02-13T08:40:06.839Z,1013.54
2024-02-13T08:41:12.919Z,1013.58
2024-02-13T08:42:19.046Z,1013.57
2024-02-13T08:43:25.502Z,1013.57
2024-02-13T08:44:31.326Z,1013.61
2024-02-13T08:45:37.324Z,1013.58
2024-02-13T08:46:43.419Z,1013.61
2024-02-13T08:47:49.791Z,1013.62
2024-02-13T08:48:55.832Z,1013.64
2024-02-13T08:50:01.880Z,1013.6
2024-02-13T08:51:07.792Z,1013.6
2024-02-13T08:52:13.866Z,1013.64
2024-02-13T08:53:19.993Z,1013.62
2024-02-13T08:54:26.088Z,1013.61
2024-02-13T08:55:32.095Z,1013.6
2024-02-13T08:56:38.293Z,1013.65
2024-02-13T08:57:44.364Z,1013.67
2024-02-13T08:58:50.458Z,1013.66
2024-02-13T08:59:57.119Z,1013.63
2024-02-13T09:01:02.643Z,1013.6
2024-02-13T09:02:08.744Z,1013.6
2024-02-13T09:03:14.842Z,1013.58
2024-02-13T09:04:20.966Z,1013.63
2024-02-13T09:05:27.014Z,1013.55
2024-02-13T09:06:33.724Z,1013.61
2024-02-13T09:07:39.319Z,1013.58
2024-02-13T09:08:45.346Z,1013.65
2024-02-13T09:09:51.424Z,1013.63
2024-02-13T09:10:57.427Z,1013.63
2024-02-13T09:12:03.675Z,1013.65
2024-02-13T09:13:09.802Z,1013.62
2024-02-13T09:14:15.834Z,1013.63
2024-02-13T09:15:21.912Z,1013.65
2024-02-13T09:16:28.006Z,1013.7
2024-02-13T09:17:34.214Z,1013.71
2024-02-13T09:18:40.335Z,1013.74
2024-02-13T09:19:46.401Z,1013.72
2024-02-13T09:20:52.383Z,1013.73
2024-02-13T09:21:58.382Z,1013.74
2024-02-13T09:23:04.555Z,1013.78
2024-02-13T09:24:10.670Z,1013.77
2024-02-13T09:25:16.732Z,1013.79
2024-02-13T09:26:22.905Z,1013.81
2024-02-13T09:27:28.931Z,1013.82
2024-02-13T09:28:35.028Z,1013.84
2024-02-13T09:29:41.149Z,1013.8
2024-02-13T09:30:47.198Z,1013.8
2024-02-13T09:31:53.321Z,1013.87
2024-02-13T09:32:59.569Z,1013.87
2024-02-13T09:34:05.572Z,1013.87
2024-02-13T09:35:11.583Z,1013.91
2024-02-13T09:36:17.683Z,1013.87
2024-02-13T09:37:23.682Z,1013.9
2024-02-13T09:38:29.881Z,1013.87
2024-02-13T09:39:35.980Z,1013.87
2024-02-13T09:40:42.107Z,1013.9
2024-02-13T09:41:48.190Z,1013.92
2024-02-13T09:42:54.253Z,1013.93
2024-02-13T09:44:00.380Z,1013.99
2024-02-13T09:45:06.485Z,1013.97
2024-02-13T09:46:12.527Z,1014.07
2024-02-13T09:47:18.637Z,1014.02
2024-02-13T09:48:25.550Z,1014.02
2024-02-13T09:49:30.909Z,1014.1
2024-02-13T09:50:36.975Z,1014.07
2024-02-13T09:51:43.166Z,1014.08
2024-02-13T09:52:49.124Z,1014.08
2024-02-13T09:53:55.262Z,1014.1
2024-02-13T09:55:01.341Z,1014.07
2024-02-13T09:56:07.387Z,1014.06
2024-02-13T09:57:13.458Z,1014.1
2024-02-13T09:58:19.656Z,1014.03
2024-02-13T09:59:25.849Z,1014.11
2024-02-13T10:00:32.063Z,1014.12
2024-02-13T10:01:37.873Z,1014.11
2024-02-13T10:02:44.044Z,1014.12
2024-02-13T10:03:50.137Z,1014.12
2024-02-13T10:04:56.161Z,1014.15
2024-02-13T10:06:02.375Z,1014.18
2024-02-13T10:07:08.463Z,1014.19
2024-02-13T10:08:14.511Z,1014.12
2024-02-13T10:09:20.534Z,1014.14
2024-02-13T10:10:26.642Z,1014.18
2024-02-13T10:11:32.817Z,1014.21
2024-02-13T10:12:38.751Z,1014.21
2024-02-13T10:13:47.703Z,1014.24
2024-02-13T10:14:51.061Z,1014.23
2024-02-13T10:15:57.171Z,1014.22
2024-02-13T10:17:03.199Z,1014.24
2024-02-13T10:18:09.400Z,1014.26
2024-02-13T10:19:15.506Z,1014.22
2024-02-13T10:20:21.633Z,1014.23
2024-02-13T10:21:28.220Z,1014.22
2024-02-13T10:22:33.590Z,1014.21
2024-02-13T10:23:39.890Z,1014.24
2024-02-13T10:24:45.879Z,1014.28
2024-02-13T10:25:51.993Z,1014.31
2024-02-13T10:26:58.107Z,1014.34
2024-02-13T10:28:04.145Z,1014.35
2024-02-13T10:30:16.361Z,1014.37
2024-02-13T10:31:22.423Z,1014.44
2024-02-13T10:32:28.698Z,1014.41
2024-02-13T10:33:34.674Z,1014.47
2024-02-13T10:34:40.780Z,1014.34
2024-02-13T10:35:46.971Z,1014.44
2024-02-13T10:36:52.910Z,1014.46
2024-02-13T10:37:59.034Z,1014.44
2024-02-13T10:39:05.197Z,1014.42
2024-02-13T10:40:11.188Z,1014.43
2024-02-13T10:41:17.310Z,1014.4
2024-02-13T10:42:23.416Z,1014.46
2024-02-13T10:43:29.515Z,1014.41
2024-02-13T10:44:35.574Z,1014.47
2024-02-13T10:45:41.709Z,1014.4
2024-02-13T10:46:47.787Z,1014.41
2024-02-13T10:47:54.005Z,1014.4
2024-02-13T10:49:00.047Z,1014.37
2024-02-13T10:50:06.102Z,1014.45
2024-02-13T10:51:12.232Z,1014.49
2024-02-13T10:52:18.279Z,1014.44
2024-02-13T10:53:24.400Z,1014.44
2024-02-13T10:54:30.442Z,1014.4
2024-02-13T10:55:36.519Z,1014.43
2024-02-13T10:56:42.790Z,1014.49
2024-02-13T10:57:48.710Z,1014.49
2024-02-13T10:58:54.824Z,1014.46
2024-02-13T11:00:01.037Z,1014.46
2024-02-13T11:01:07.317Z,1014.5
2024-02-13T11:02:13.164Z,1014.49
2024-02-13T11:03:19.249Z,1014.48
2024-02-13T11:04:25.456Z,1014.47
2024-02-13T11:05:31.442Z,1014.48
2024-02-13T11:06:37.507Z,1014.45
2024-02-13T11:07:44.063Z,1014.52
2024-02-13T11:08:49.765Z,1014.55
2024-02-13T11:09:55.781Z,1014.49
2024-02-13T11:11:01.871Z,1014.47
2024-02-13T11:12:08.084Z,1014.52
2024-02-13T11:13:14.101Z,1014.46
2024-02-13T11:14:26.406Z,1014.48
2024-02-13T11:15:32.378Z,1014.46
2024-02-13T11:16:38.479Z,1014.44
2024-02-13T11:17:44.668Z,1014.45
2024-02-13T11:18:50.964Z,1014.46
2024-02-13T11:19:57.097Z,1014.46
2024-02-13T11:21:03.007Z,1014.41
2024-02-13T11:22:08.952Z,1014.42
2024-02-13T11:23:15.070Z,1014.42
2024-02-13T11:24:21.120Z,1014.41
2024-02-13T11:25:27.441Z,1014.43
2024-02-13T11:26:33.384Z,1014.42
2024-02-13T11:27:39.666Z,1014.45
2024-02-13T11:28:45.525Z,1014.46
2024-02-13T11:29:51.725Z,1014.45
2024-02-13T11:30:57.699Z,1014.42
2024-02-13T11:32:03.855Z,1014.47
2024-02-13T11:33:10.173Z,1014.47
2024-02-13T11:34:16.193Z,1014.43
2024-02-13T11:35:22.146Z,1014.48
2024-02-13T11:36:30.296Z,1014.48
2024-02-13T11:37:34.204Z,1014.43
2024-02-13T11:38:40.464Z,1014.41
2024-02-13T11:39:46.464Z,1014.39
2024-02-13T11:40:52.569Z,1014.39
2024-02-13T11:41:58.831Z,1014.38
2024-02-13T11:43:04.781Z,1014.36
2024-02-13T11:44:11.167Z,1014.37
2024-02-13T11:45:16.953Z,1014.38
2024-02-13T11:46:23.040Z,1014.4
2024-02-13T11:47:29.294Z,1014.39
2024-02-13T11:48:35.973Z,1014.41
2024-02-13T11:49:41.492Z,1014.45
2024-02-13T11:50:47.423Z,1014.41
2024-02-13T11:51:53.529Z,1014.43
2024-02-13T11:52:59.665Z,1014.47
2024-02-13T11:54:05.782Z,1014.44
2024-02-13T11:55:11.821Z,1014.42
2024-02-13T11:56:17.911Z,1014.43
2024-02-13T11:57:23.986Z,1014.48
2024-02-13T11:58:30.098Z,1014.47
2024-02-13T11:59:36.206Z,1014.48
2024-02-13T12:00:42.278Z,1014.42
2024-02-13T12:01:48.355Z,1014.35
2024-02-13T12:02:54.521Z,1014.4
2024-02-13T12:04:00.769Z,1014.45
2024-02-13T12:05:06.642Z,1014.44
2024-02-13T12:06:12.906Z,1014.43
2024-02-13T12:07:18.845Z,1014.42
2024-02-13T12:08:24.988Z,1014.39
2024-02-13T12:09:31.048Z,1014.4
2024-02-13T12:10:37.153Z,1014.41
2024-02-13T12:11:43.280Z,1014.48
2024-02-13T12:12:49.309Z,1014.4
2024-02-13T12:13:55.401Z,1014.4
2024-02-13T12:15:01.513Z,1014.48
2024-02-13T12:16:07.595Z,1014.45
2024-02-13T12:17:13.844Z,1014.46
2024-02-13T12:18:19.896Z,1014.47
2024-02-13T12:19:25.924Z,1014.5
2024-02-13T12:20:32.063Z,1014.51
2024-02-13T12:21:38.063Z,1014.56
2024-02-13T12:22:44.337Z,1014.54
2024-02-13T12:23:50.301Z,1014.46
2024-02-13T12:24:56.389Z,1014.47
2024-02-13T12:26:02.488Z,1014.53
2024-02-13T12:27:08.561Z,1014.58
2024-02-13T12:28:14.566Z,1014.59
2024-02-13T12:29:20.780Z,1014.58
2024-02-13T12:30:26.842Z,1014.58
2024-02-13T12:31:32.936Z,1014.51
2024-02-13T12:32:39.157Z,1014.52
2024-02-13T12:33:45.246Z,1014.52
2024-02-13T12:34:52.009Z,1014.53
2024-02-13T12:35:57.372Z,1014.56
2024-02-13T12:37:03.397Z,1014.54
2024-02-13T12:38:09.520Z,1014.55
2024-02-13T12:39:15.627Z,1014.55
2024-02-13T12:40:21.780Z,1014.53
2024-02-13T12:41:27.791Z,1014.51
2024-02-13T12:42:33.888Z,1014.58
2024-02-13T12:43:39.967Z,1014.52
2024-02-13T12:44:46.090Z,1014.6
2024-02-13T12:45:52.151Z,1014.56
2024-02-13T12:46:58.302Z,1014.57
2024-02-13T12:48:04.487Z,1014.52
2024-02-13T12:49:10.526Z,1014.59
2024-02-13T12:50:16.688Z,1014.6
2024-02-13T12:51:22.809Z,1014.56
2024-02-13T12:52:28.751Z,1014.56
2024-02-13T12:53:34.864Z,1014.59
2024-02-13T12:54:40.822Z,1014.56
2024-02-13T12:55:47.032Z,1014.5
2024-02-13T12:56:53.137Z,1014.54
2024-02-13T12:57:59.244Z,1014.54
2024-02-13T12:59:05.229Z,1014.52
2024-02-13T13:00:11.395Z,1014.5
2024-02-13T13:01:17.569Z,1014.57
2024-02-13T13:02:23.639Z,1014.53
2024-02-13T13:03:29.747Z,1014.57
2024-02-13T13:04:35.668Z,1014.56
2024-02-13T13:05:41.895Z,1014.54
2024-02-13T13:06:48.017Z,1014.56
2024-02-13T13:07:54.071Z,1014.54
2024-02-13T13:09:00.515Z,1014.56
2024-02-13T13:10:06.238Z,1014.59
2024-02-13T13:11:12.338Z,1014.6
2024-02-13T13:12:18.544Z,1014.53
2024-02-13T13:13:24.793Z,1014.55
2024-02-13T13:14:30.694Z,1014.56
2024-02-13T13:15:36.789Z,1014.53
2024-02-13T13:16:42.811Z,1014.51
2024-02-13T13:17:48.982Z,1014.54
2024-02-13T13:18:55.444Z,1014.56
2024-02-13T13:20:01.283Z,1014.52
2024-02-13T13:21:07.265Z,1014.58
2024-02-13T13:22:13.821Z,1014.54
2024-02-13T13:23:19.480Z,1014.54
2024-02-13T13:24:25.492Z,1014.59